createdAt,value
2023-04-15T00:01:45.794Z,2.70
2023-04-15T00:04:13.667Z,3.07
2023-04-15T00:06:41.961Z,2.70
2023-04-15T00:09:09.755Z,2.75
2023-04-15T00:11:37.516Z,2.90
2023-04-15T00:14:06.482Z,3.55
2023-04-15T00:16:34.142Z,3.72
2023-04-15T00:19:02.187Z,3.17
2023-04-15T00:21:30.093Z,3.40
2023-04-15T00:23:57.888Z,3.00
2023-04-15T00:26:25.531Z,3.47
2023-04-15T00:28:54.006Z,3.53
2023-04-15T00:31:22.098Z,3.53
2023-04-15T00:33:49.912Z,3.15
2023-04-15T00:36:17.917Z,2.80
2023-04-15T00:38:45.849Z,3.42
2023-04-15T00:41:13.574Z,3.50
2023-04-15T00:43:41.561Z,2.77
2023-04-15T00:46:09.676Z,3.35
2023-04-15T00:48:38.359Z,3.28
2023-04-15T00:51:07.359Z,3.33
2023-04-15T00:53:35.054Z,3.57
2023-04-15T00:56:02.730Z,4.28
2023-04-15T00:58:30.402Z,3.35
2023-04-15T01:00:58.317Z,3.57
2023-04-15T01:03:26.330Z,2.83
2023-04-15T01:05:58.473Z,3.10
2023-04-15T01:08:29.601Z,2.57
2023-04-15T01:11:00.099Z,3.10
2023-04-15T01:13:28.322Z,2.67
2023-04-15T01:15:56.314Z,3.47
2023-04-15T01:18:24.154Z,2.33
2023-04-15T01:20:51.820Z,2.50
2023-04-15T01:23:19.536Z,2.95
2023-04-15T01:25:47.690Z,2.70
2023-04-15T01:28:18.469Z,3.13
2023-04-15T01:30:46.038Z,2.67
2023-04-15T01:33:13.761Z,3.27
2023-04-15T01:35:41.646Z,3.65
2023-04-15T01:38:09.802Z,3.42
2023-04-15T01:40:37.950Z,3.47
2023-04-15T01:43:06.673Z,3.40
2023-04-15T01:45:34.362Z,3.95
2023-04-15T01:48:02.376Z,3.85
2023-04-15T01:50:30.082Z,3.63
2023-04-15T01:52:57.805Z,4.10
2023-04-15T01:55:25.664Z,4.53
2023-04-15T01:57:53.530Z,4.13
2023-04-15T02:00:22.427Z,3.97
2023-04-15T02:02:50.334Z,4.03
2023-04-15T02:05:18.031Z,4.05
2023-04-15T02:07:46.193Z,3.00
2023-04-15T02:10:13.884Z,3.58
2023-04-15T02:12:41.782Z,4.22
2023-04-15T02:15:10.523Z,3.93
2023-04-15T02:17:38.290Z,4.40
2023-04-15T02:20:06.402Z,4.93
2023-04-15T02:22:34.038Z,4.67
2023-04-15T02:25:01.775Z,3.97
2023-04-15T02:27:30.761Z,3.53
2023-04-15T02:29:58.487Z,4.03
2023-04-15T02:32:26.272Z,4.07
2023-04-15T02:34:53.954Z,3.55
2023-04-15T02:37:21.747Z,3.40
2023-04-15T02:39:50.128Z,4.17
2023-04-15T02:42:17.764Z,4.50
2023-04-15T02:44:45.561Z,4.55
2023-04-15T02:47:14.557Z,3.97
2023-04-15T02:49:42.203Z,4.88
2023-04-15T02:52:10.190Z,4.28
2023-04-15T02:54:37.915Z,5.30
2023-04-15T02:57:07.050Z,4.63
2023-04-15T02:59:34.688Z,4.60
2023-04-15T03:02:02.469Z,4.45
2023-04-15T03:04:31.029Z,4.73
2023-04-15T03:06:58.839Z,4.90
2023-04-15T03:09:26.789Z,4.75
2023-04-15T03:11:54.994Z,4.23
2023-04-15T03:14:22.759Z,4.97
2023-04-15T03:16:52.093Z,4.30
2023-04-15T03:19:20.829Z,4.82
2023-04-15T03:21:48.483Z,4.47
2023-04-15T03:24:16.271Z,4.77
2023-04-15T03:26:43.931Z,4.43
2023-04-15T03:29:11.795Z,5.05
2023-04-15T03:31:39.476Z,5.38
2023-04-15T03:34:07.512Z,5.07
2023-04-15T03:36:35.180Z,5.00
2023-04-15T03:39:03.420Z,5.05
2023-04-15T03:41:31.163Z,4.57
2023-04-15T03:43:59.044Z,4.85
2023-04-15T03:46:26.918Z,5.47
2023-04-15T03:48:54.640Z,4.53
2023-04-15T03:51:22.396Z,4.18
2023-04-15T03:53:50.040Z,4.45
2023-04-15T03:56:17.731Z,4.47
2023-04-15T03:58:45.483Z,3.83
2023-04-15T04:01:13.233Z,3.15
2023-04-15T04:03:41.126Z,3.78
2023-04-15T04:06:08.992Z,3.23
2023-04-15T04:08:36.800Z,3.13
2023-04-15T04:11:04.764Z,3.50
2023-04-15T04:13:32.420Z,3.50
2023-04-15T04:16:00.301Z,3.33
2023-04-15T04:18:28.144Z,2.88
2023-04-15T04:20:56.039Z,3.00
2023-04-15T04:23:23.727Z,3.97
2023-04-15T04:25:51.616Z,2.80
2023-04-15T04:28:19.419Z,2.83
2023-04-15T04:30:47.088Z,3.57
2023-04-15T04:33:14.674Z,3.05
2023-04-15T04:35:42.399Z,3.13
2023-04-15T04:38:10.109Z,3.00
2023-04-15T04:40:37.842Z,3.40
2023-04-15T04:43:06.741Z,3.33
2023-04-15T04:45:34.487Z,3.55
2023-04-15T04:48:02.279Z,3.43
2023-04-15T04:50:29.921Z,3.53
2023-04-15T04:52:57.571Z,3.65
2023-04-15T04:55:25.290Z,3.90
2023-04-15T04:57:53.179Z,3.58
2023-04-15T05:00:21.364Z,3.40
2023-04-15T05:02:49.473Z,4.10
2023-04-15T05:05:17.437Z,3.45
2023-04-15T05:07:45.674Z,3.97
2023-04-15T05:10:14.882Z,3.85
2023-04-15T05:12:42.665Z,4.03
2023-04-15T05:15:10.607Z,4.43
2023-04-15T05:17:38.987Z,4.38
2023-04-15T05:20:07.061Z,4.73
2023-04-15T05:22:34.729Z,4.60
2023-04-15T05:25:02.435Z,4.43
2023-04-15T05:27:30.238Z,5.10
2023-04-15T05:29:58.039Z,5.07
2023-04-15T05:32:25.848Z,5.20
2023-04-15T05:34:53.578Z,5.38
2023-04-15T05:37:22.411Z,4.80
2023-04-15T05:39:50.070Z,4.90
2023-04-15T05:42:17.690Z,4.53
2023-04-15T05:44:45.347Z,4.40
2023-04-15T05:47:13.088Z,4.15
2023-04-15T05:49:42.200Z,4.00
2023-04-15T05:52:09.865Z,4.00
2023-04-15T05:54:37.983Z,3.90
2023-04-15T05:57:06.726Z,4.28
2023-04-15T05:59:34.425Z,4.07
2023-04-15T06:02:02.224Z,5.13
2023-04-15T06:04:30.516Z,4.78
2023-04-15T06:06:58.325Z,5.00
2023-04-15T06:09:26.065Z,5.17
2023-04-15T06:11:54.064Z,5.07
2023-04-15T06:14:24.293Z,5.45
2023-04-15T06:16:53.449Z,4.30
2023-04-15T06:19:21.120Z,4.78
2023-04-15T06:21:48.813Z,4.47
2023-04-15T06:24:16.480Z,4.13
2023-04-15T06:26:44.055Z,4.10
2023-04-15T06:29:11.770Z,4.75
2023-04-15T06:31:39.416Z,4.03
2023-04-15T06:34:07.463Z,4.30
2023-04-15T06:36:35.085Z,4.55
2023-04-15T06:39:03.030Z,4.20
2023-04-15T06:41:30.866Z,4.23
2023-04-15T06:43:58.844Z,4.18
2023-04-15T06:46:26.876Z,3.30
2023-04-15T06:48:55.354Z,2.78
2023-04-15T06:51:26.580Z,2.40
2023-04-15T06:53:54.712Z,3.25
2023-04-15T06:56:23.370Z,2.80
2023-04-15T06:58:51.394Z,2.83
2023-04-15T07:01:19.094Z,2.88
2023-04-15T07:03:47.060Z,2.70
2023-04-15T07:06:14.846Z,3.23
2023-04-15T07:08:43.045Z,3.00
2023-04-15T07:11:10.754Z,3.05
2023-04-15T07:13:41.525Z,3.50
2023-04-15T07:16:09.153Z,3.23
2023-04-15T07:18:36.852Z,4.03
2023-04-15T07:21:06.651Z,3.47
2023-04-15T07:23:34.378Z,3.30
2023-04-15T07:26:02.489Z,3.10
2023-04-15T07:28:30.374Z,3.45
2023-04-15T07:30:58.116Z,3.50
2023-04-15T07:33:26.003Z,3.55
2023-04-15T07:35:53.691Z,3.55
2023-04-15T07:38:21.434Z,3.20
2023-04-15T07:40:49.764Z,2.80
2023-04-15T07:43:17.437Z,3.22
2023-04-15T07:45:46.320Z,2.65
2023-04-15T07:48:14.206Z,2.93
2023-04-15T07:50:41.947Z,3.13
2023-04-15T07:53:09.715Z,2.35
2023-04-15T07:55:37.384Z,2.20
2023-04-15T07:58:05.149Z,3.00
2023-04-15T08:00:32.883Z,1.80
2023-04-15T08:03:00.916Z,1.67
2023-04-15T08:05:28.895Z,2.13
2023-04-15T08:07:56.778Z,1.75
2023-04-15T08:10:24.405Z,1.42
2023-04-15T08:12:54.427Z,1.30
2023-04-15T08:15:22.434Z,1.25
2023-04-15T08:17:50.678Z,1.63
2023-04-15T08:20:19.046Z,1.80
2023-04-15T08:22:51.945Z,1.80
2023-04-15T08:25:22.550Z,1.33
2023-04-15T08:27:50.385Z,1.30
2023-04-15T08:30:18.154Z,1.10
2023-04-15T08:32:49.108Z,1.23
2023-04-15T08:35:16.859Z,1.00
2023-04-15T08:37:44.675Z,1.30
2023-04-15T08:40:12.934Z,1.60
2023-04-15T08:42:45.183Z,1.60
2023-04-15T08:45:13.448Z,1.40
2023-04-15T08:47:41.264Z,1.13
2023-04-15T08:50:10.828Z,1.40
2023-04-15T08:52:38.566Z,1.02
2023-04-15T08:55:06.433Z,1.47
2023-04-15T08:57:34.282Z,1.10
2023-04-15T09:00:03.842Z,0.70
2023-04-15T09:02:33.086Z,0.87
2023-04-15T09:05:01.074Z,1.00
2023-04-15T09:07:28.883Z,1.27
2023-04-15T09:09:57.420Z,0.70
2023-04-15T09:12:25.121Z,1.25
2023-04-15T09:14:52.952Z,1.27
2023-04-15T09:17:21.916Z,0.80
2023-04-15T09:19:49.649Z,0.80
2023-04-15T09:22:17.494Z,0.77
2023-04-15T09:24:45.164Z,0.65
2023-04-15T09:27:12.830Z,0.80
2023-04-15T09:29:42.996Z,0.70
2023-04-15T09:32:13.154Z,0.70
2023-04-15T09:34:40.811Z,0.40
2023-04-15T09:37:11.108Z,0.52
2023-04-15T09:39:52.251Z,0.70
2023-04-15T09:42:29.002Z,0.70
2023-04-15T09:44:57.723Z,0.80
2023-04-15T09:47:28.936Z,0.60
2023-04-15T09:49:57.727Z,0.98
2023-04-15T09:52:25.404Z,0.80
2023-04-15T09:54:55.028Z,0.90
2023-04-15T09:57:23.827Z,1.30
2023-04-15T09:59:51.953Z,1.30
2023-04-15T10:02:21.004Z,0.80
2023-04-15T10:04:51.795Z,0.93
2023-04-15T10:07:22.624Z,1.45
2023-04-15T10:09:53.513Z,1.13
2023-04-15T10:12:21.281Z,1.02
2023-04-15T10:14:59.893Z,1.10
2023-04-15T10:17:35.474Z,1.20
2023-04-15T10:20:04.918Z,1.45
2023-04-15T10:22:33.373Z,1.05
2023-04-15T10:25:01.394Z,1.20
2023-04-15T10:27:29.323Z,1.13
2023-04-15T10:29:57.789Z,1.25
2023-04-15T10:32:25.701Z,0.88
2023-04-15T10:34:54.659Z,1.00
2023-04-15T10:37:22.981Z,1.05
2023-04-15T10:39:50.941Z,1.15
2023-04-15T10:42:19.515Z,1.40
2023-04-15T10:44:51.797Z,0.90
2023-04-15T10:47:20.289Z,0.77
2023-04-15T10:49:48.877Z,1.00
2023-04-15T10:52:17.592Z,1.02
2023-04-15T10:54:45.469Z,1.42
2023-04-15T10:57:17.639Z,0.80
2023-04-15T11:00:04.516Z,0.90
2023-04-15T11:02:41.812Z,0.80
2023-04-15T11:05:10.227Z,1.00
2023-04-15T11:07:49.055Z,1.13
2023-04-15T11:10:21.216Z,1.00
2023-04-15T11:12:49.328Z,1.02
2023-04-15T11:15:37.046Z,0.90
2023-04-15T11:18:12.250Z,0.90
2023-04-15T11:20:40.243Z,0.90
2023-04-15T11:23:14.814Z,0.80
2023-04-15T11:25:43.911Z,1.07
2023-04-15T11:28:12.232Z,0.63
2023-04-15T11:30:40.224Z,1.23
2023-04-15T11:33:12.580Z,1.10
2023-04-15T11:35:41.810Z,0.70
2023-04-15T11:38:10.244Z,1.08
2023-04-15T11:40:37.915Z,1.03
2023-04-15T11:43:06.541Z,0.80
2023-04-15T11:45:34.430Z,0.80
2023-04-15T11:48:08.884Z,0.93
2023-04-15T11:50:38.042Z,0.70
2023-04-15T11:53:08.299Z,0.70
2023-04-15T11:55:43.626Z,0.70
2023-04-15T11:58:16.400Z,0.70
2023-04-15T12:00:48.299Z,0.98
2023-04-15T12:03:26.006Z,1.02
2023-04-15T12:06:12.541Z,1.00
2023-04-15T12:09:00.369Z,0.75
2023-04-15T12:11:31.509Z,1.15
2023-04-15T12:14:00.665Z,1.10
2023-04-15T12:16:28.930Z,0.83
2023-04-15T12:18:57.816Z,0.65
2023-04-15T12:21:26.117Z,0.80
2023-04-15T12:23:57.465Z,0.83
2023-04-15T12:26:29.011Z,0.77
2023-04-15T12:28:57.462Z,1.10
2023-04-15T12:31:25.227Z,0.73
2023-04-15T12:33:52.998Z,0.85
2023-04-15T12:36:20.654Z,0.57
2023-04-15T12:38:48.450Z,0.80
2023-04-15T12:41:16.290Z,0.87
2023-04-15T12:43:46.890Z,0.77
2023-04-15T12:46:15.772Z,0.65
2023-04-15T12:48:43.666Z,0.70
2023-04-15T12:51:11.579Z,0.68
2023-04-15T12:53:39.264Z,0.70
2023-04-15T12:56:07.239Z,0.90
2023-04-15T12:58:35.050Z,0.90
2023-04-15T13:01:03.653Z,0.80
2023-04-15T13:03:31.736Z,1.30
2023-04-15T13:06:00.673Z,0.70
2023-04-15T13:08:28.396Z,0.98
2023-04-15T13:10:56.237Z,0.95
2023-04-15T13:13:24.018Z,1.00
2023-04-15T13:15:51.751Z,1.00
2023-04-15T13:18:19.590Z,0.98
2023-04-15T13:20:47.494Z,1.20
2023-04-15T13:23:18.805Z,0.70
2023-04-15T13:25:46.654Z,0.70
2023-04-15T13:28:14.362Z,0.82
2023-04-15T13:30:42.105Z,1.00
2023-04-15T13:33:09.769Z,0.95
2023-04-15T13:35:37.518Z,1.20
2023-04-15T13:38:05.297Z,0.83
2023-04-15T13:40:33.096Z,1.25
2023-04-15T13:43:00.952Z,1.10
2023-04-15T13:45:37.777Z,1.00
2023-04-15T13:48:05.761Z,1.00
2023-04-15T13:50:33.414Z,1.27
2023-04-15T13:53:01.159Z,0.88
2023-04-15T13:55:28.898Z,0.80
2023-04-15T13:57:57.815Z,0.80
2023-04-15T14:00:25.616Z,1.20
2023-04-15T14:02:53.631Z,0.90
2023-04-15T14:05:21.460Z,0.98
2023-04-15T14:07:49.432Z,1.35
2023-04-15T14:10:17.130Z,1.67
2023-04-15T14:12:44.717Z,0.85
2023-04-15T14:15:13.716Z,1.45
2023-04-15T14:17:42.636Z,0.63
2023-04-15T14:20:10.852Z,1.10
2023-04-15T14:22:38.588Z,0.65
2023-04-15T14:25:06.733Z,0.80
2023-04-15T14:27:37.578Z,1.20
2023-04-15T14:30:06.430Z,1.45
2023-04-15T14:32:34.281Z,1.77
2023-04-15T14:35:01.972Z,1.20
2023-04-15T14:37:29.745Z,1.15
2023-04-15T14:39:57.417Z,1.00
2023-04-15T14:42:25.164Z,1.42
2023-04-15T14:44:52.812Z,1.30
2023-04-15T14:47:20.768Z,0.90
2023-04-15T14:49:48.447Z,1.33
2023-04-15T14:52:16.233Z,0.97
2023-04-15T14:54:43.996Z,1.52
2023-04-15T14:57:11.746Z,1.73
2023-04-15T14:59:39.493Z,1.67
2023-04-15T15:02:07.438Z,1.20
2023-04-15T15:04:36.227Z,1.13
2023-04-15T15:07:04.052Z,1.48
2023-04-15T15:09:33.871Z,1.03
2023-04-15T15:12:02.795Z,1.55
2023-04-15T15:14:30.469Z,1.33
2023-04-15T15:16:58.232Z,1.30
2023-04-15T15:19:25.964Z,0.85
2023-04-15T15:21:53.651Z,1.63
2023-04-15T15:24:21.486Z,1.17
2023-04-15T15:26:49.186Z,1.15
2023-04-15T15:29:16.860Z,1.30
2023-04-15T15:31:44.662Z,1.23
2023-04-15T15:34:12.373Z,1.90
2023-04-15T15:36:40.155Z,1.90
2023-04-15T15:39:08.133Z,1.83
2023-04-15T15:41:37.020Z,1.23
2023-04-15T15:44:04.821Z,1.27
2023-04-15T15:46:32.504Z,1.40
2023-04-15T15:49:00.299Z,1.30
2023-04-15T15:51:27.972Z,1.40
2023-04-15T15:53:55.872Z,1.30
2023-04-15T15:56:23.705Z,1.60
2023-04-15T15:58:51.502Z,1.30
2023-04-15T16:01:19.197Z,1.70
2023-04-15T16:03:47.136Z,1.27
2023-04-15T16:06:14.947Z,1.43
2023-04-15T16:08:42.602Z,1.42
2023-04-15T16:11:10.425Z,2.03
2023-04-15T16:13:38.069Z,1.83
2023-04-15T16:16:05.955Z,1.83
2023-04-15T16:18:35.181Z,2.38
2023-04-15T16:21:03.294Z,1.98
2023-04-15T16:23:30.951Z,1.50
2023-04-15T16:25:58.797Z,2.58
2023-04-15T16:28:27.490Z,1.58
2023-04-15T16:30:55.670Z,2.10
2023-04-15T16:33:23.350Z,1.58
2023-04-15T16:35:51.639Z,2.33
2023-04-15T16:38:19.384Z,2.63
2023-04-15T16:40:47.120Z,1.92
2023-04-15T16:43:14.810Z,1.83
2023-04-15T16:45:44.538Z,2.50
2023-04-15T16:48:12.374Z,1.50
2023-04-15T16:50:40.076Z,1.83
2023-04-15T16:53:09.614Z,1.85
2023-04-15T16:55:37.494Z,2.77
2023-04-15T16:58:08.353Z,1.90
2023-04-15T17:00:37.040Z,1.58
2023-04-15T17:03:06.387Z,1.77
2023-04-15T17:05:34.274Z,2.22
2023-04-15T17:08:02.036Z,2.10
2023-04-15T17:10:29.753Z,2.13
2023-04-15T17:12:57.729Z,2.03
2023-04-15T17:15:25.562Z,2.35
2023-04-15T17:17:53.553Z,1.98
2023-04-15T17:20:21.502Z,2.00
2023-04-15T17:22:49.198Z,2.38
2023-04-15T17:25:17.014Z,2.67
2023-04-15T17:27:44.880Z,1.77
2023-04-15T17:30:12.676Z,2.65
2023-04-15T17:32:40.545Z,3.03
2023-04-15T17:35:08.688Z,3.17
2023-04-15T17:37:36.802Z,2.70
2023-04-15T17:40:07.332Z,2.53
2023-04-15T17:42:36.383Z,2.83
2023-04-15T17:45:06.822Z,2.30
2023-04-15T17:47:34.701Z,1.88
2023-04-15T17:50:02.467Z,2.60
2023-04-15T17:52:30.088Z,3.03
2023-04-15T17:54:58.064Z,2.25
2023-04-15T17:57:25.848Z,2.08
2023-04-15T17:59:53.974Z,2.63
2023-04-15T18:02:21.852Z,2.20
2023-04-15T18:04:49.900Z,3.33
2023-04-15T18:07:17.701Z,2.42
2023-04-15T18:09:45.902Z,3.43
2023-04-15T18:12:14.872Z,2.47
2023-04-15T18:14:42.655Z,3.10
2023-04-15T18:17:10.391Z,4.40
2023-04-15T18:19:38.004Z,3.97
2023-04-15T18:22:05.777Z,4.28
2023-04-15T18:24:33.961Z,3.47
2023-04-15T18:27:01.916Z,4.30
2023-04-15T18:29:31.241Z,4.50
2023-04-15T18:32:00.449Z,4.18
2023-04-15T18:34:28.289Z,4.00
2023-04-15T18:36:59.135Z,3.80
2023-04-15T18:39:27.786Z,4.68
2023-04-15T18:41:57.472Z,4.63
2023-04-15T18:44:25.510Z,5.35
2023-04-15T18:46:53.140Z,5.07
2023-04-15T18:49:21.406Z,4.75
2023-04-15T18:51:49.130Z,4.87
2023-04-15T18:54:16.907Z,4.60
2023-04-15T18:56:44.608Z,5.32
2023-04-15T18:59:28.598Z,4.63
2023-04-15T19:01:58.686Z,5.20
2023-04-15T19:04:26.602Z,4.93
2023-04-15T19:06:54.331Z,5.90
2023-04-15T19:09:22.156Z,5.43
2023-04-15T19:11:49.800Z,5.55
2023-04-15T19:14:18.317Z,6.47
2023-04-15T19:16:46.269Z,5.87
2023-04-15T19:19:16.980Z,6.22
2023-04-15T19:21:46.814Z,6.10
2023-04-15T19:24:14.503Z,6.83
2023-04-15T19:26:42.288Z,6.55
2023-04-15T19:29:10.935Z,6.63
2023-04-15T19:31:38.654Z,7.67
2023-04-15T19:34:06.533Z,6.63
2023-04-15T19:36:34.620Z,7.25
2023-04-15T19:39:02.433Z,6.57
2023-04-15T19:41:30.233Z,7.33
2023-04-15T19:43:57.965Z,7.88
2023-04-15T19:46:27.946Z,8.32
2023-04-15T19:48:56.119Z,7.67
2023-04-15T19:51:23.800Z,9.45
2023-04-15T19:53:53.995Z,7.88
2023-04-15T19:56:21.729Z,8.97
2023-04-15T19:58:52.963Z,8.52
2023-04-15T20:01:21.036Z,9.95
2023-04-15T20:03:48.894Z,9.13
2023-04-15T20:06:16.784Z,9.07
2023-04-15T20:08:44.608Z,9.77
2023-04-15T20:11:12.835Z,9.10
2023-04-15T20:13:42.863Z,10.37
2023-04-15T20:16:11.853Z,10.48
2023-04-15T20:18:39.611Z,10.07
2023-04-15T20:21:07.372Z,10.40
2023-04-15T20:23:36.108Z,10.15
2023-04-15T20:26:03.822Z,9.23
2023-04-15T20:28:31.530Z,10.52
2023-04-15T20:31:03.485Z,9.67
2023-04-15T20:33:31.078Z,9.93
2023-04-15T20:35:59.848Z,10.05
2023-04-15T20:38:27.634Z,10.60
2023-04-15T20:40:55.287Z,10.95
2023-04-15T20:43:22.950Z,9.82
2023-04-15T20:45:53.004Z,9.80
2023-04-15T20:48:21.005Z,10.18
2023-04-15T20:50:48.650Z,10.82
2023-04-15T20:53:16.951Z,11.25
2023-04-15T20:55:44.839Z,10.13
2023-04-15T20:58:12.507Z,9.95
2023-04-15T21:00:40.219Z,10.65
2023-04-15T21:03:08.031Z,9.60
2023-04-15T21:05:35.776Z,9.52
2023-04-15T21:08:03.414Z,10.60
2023-04-15T21:10:35.324Z,9.90
2023-04-15T21:13:03.148Z,10.73
2023-04-15T21:15:30.945Z,10.70
2023-04-15T21:17:58.730Z,10.30
2023-04-15T21:20:26.595Z,9.40
2023-04-15T21:22:54.427Z,9.90
2023-04-15T21:25:22.256Z,10.02
2023-04-15T21:27:50.015Z,10.07
2023-04-15T21:30:17.642Z,10.15
2023-04-15T21:32:47.790Z,11.40
2023-04-15T21:35:15.556Z,10.27
2023-04-15T21:37:43.263Z,10.07
2023-04-15T21:40:11.740Z,8.95
2023-04-15T21:42:39.549Z,10.57
2023-04-15T21:45:07.453Z,10.37
2023-04-15T21:48:05.715Z,11.18
2023-04-15T21:50:24.166Z,10.32
2023-04-15T21:52:51.953Z,10.07
2023-04-15T21:55:22.725Z,10.73
2023-04-15T21:57:50.443Z,10.45
2023-04-15T22:00:18.180Z,9.70
2023-04-15T22:02:46.368Z,10.23
2023-04-15T22:05:14.204Z,10.55
2023-04-15T22:07:41.935Z,10.48
2023-04-15T22:10:09.771Z,10.23
2023-04-15T22:12:37.480Z,10.48
2023-04-15T22:15:05.423Z,11.07
2023-04-15T22:17:33.191Z,11.70
2023-04-15T22:20:00.963Z,11.00
2023-04-15T22:22:44.046Z,11.40
2023-04-15T22:25:12.845Z,11.80
2023-04-15T22:27:40.564Z,11.80
2023-04-15T22:30:08.665Z,11.43
2023-04-15T22:32:36.560Z,10.88
2023-04-15T22:35:06.471Z,12.13
2023-04-15T22:37:34.299Z,10.43
2023-04-15T22:40:02.598Z,11.00
2023-04-15T22:42:30.265Z,11.23
2023-04-15T22:44:58.162Z,10.75
2023-04-15T22:47:26.056Z,10.38
2023-04-15T22:49:53.851Z,10.57
2023-04-15T22:52:30.112Z,10.27
2023-04-15T22:54:59.303Z,11.07
2023-04-15T22:57:27.987Z,10.43
2023-04-15T22:59:55.870Z,10.30
2023-04-15T23:02:23.692Z,10.55
2023-04-15T23:04:51.635Z,11.40
2023-04-15T23:07:19.400Z,10.13
2023-04-15T23:09:47.105Z,10.55
2023-04-15T23:12:14.807Z,10.43
2023-04-15T23:14:42.495Z,10.83
2023-04-15T23:17:10.486Z,10.27
2023-04-15T23:19:38.236Z,9.27
2023-04-15T23:22:07.217Z,9.15
2023-04-15T23:24:34.823Z,8.77
2023-04-15T23:27:02.576Z,10.40
2023-04-15T23:29:30.475Z,9.73
2023-04-15T23:31:58.250Z,9.60
2023-04-15T23:34:26.406Z,9.65
2023-04-15T23:36:54.259Z,10.82
2023-04-15T23:39:22.004Z,11.60
2023-04-15T23:41:49.738Z,11.90
2023-04-15T23:44:17.454Z,10.65
2023-04-15T23:46:45.232Z,12.93
2023-04-15T23:49:13.102Z,12.70
2023-04-15T23:51:40.714Z,12.35
2023-04-15T23:54:08.429Z,12.80
2023-04-15T23:56:36.603Z,13.07
2023-04-15T23:59:04.359Z,13.75
